Corsicana, TX

10:55 AM CDT on September 23, 2014 (GMT -0500)
Lancaster | Change Station
CLOSE
Current Station
Airport
Location: Lancaster,
Elevation: 502 ft
Nearby Weather Stations

Elev 502 ft 32.58 °N, 96.72 °W | Updated 20 minutes ago

Clear
Clear
69 °F
Feels Like 69 °F
N
4
Wind Variable Wind from SE

Today
High -- | Low -- °F
--% Chance of Precip.
Yesterday
High -- | Low -- °F
Precip. -- in
7:14 AM 7:21 PM
Waning Crescent, 0% visible
Pressure 30.22 in
Visibility 10.0 miles
Clouds Clear
Dew Point 52 °F
Humidity 53%
Rainfall 0.00 in
Snow Depth Not available.
UV 5 out of 12
Pollen 10.20 out of 12
Air Quality Not available.
Flu Activity Not available.
METAR KLNC 231535Z AUTO 13003KT 10SM CLR 21/11 A3022 RMK AO2 T02070109

More Conditions Fewer Conditions

Pressure 30.22 in
Visibility 10.0 miles
Clouds Clear
Dew Point 52 °F
Humidity 53%
Rainfall 0.00 in
Snow Depth Not available.
UV 5 out of 12
Pollen 10.20 out of 12
Air Quality Not available.
Flu Activity Not available.
METAR KLNC 231535Z AUTO 13003KT 10SM CLR 21/11 A3022 RMK AO2 T02070109

More Conditions Fewer Conditions

10-Day Weather Forecast

Almanac

Astronomy

Sep. 23, 2014 Rise Set
Actual Time 7:14 AM CDT 7:21 PM CDT
Civil Twilight 6:50 AM CDT 7:45 PM CDT
Nautical Twilight 6:21 AM CDT 8:13 PM CDT
Astronomical Twilight 5:53 AM CDT 8:42 PM CDT
Moon 6:40 AM CDT 7:01 PM CDT
Length of Visible Light 12h 55m
Length of Day
12h 06m
Tomorrow will be 1m 58s shorter.
Waning Crescent, 0% of the Moon is Illuminated
Today
Waning Crescent
Sep 24
New
Oct 1
First Quarter
Oct 8
Full
Oct 15
Last Quarter

Today's Extremes

State Highs State Lows

Community

WunderPhotos

Upload Photos

1,755,727 photos uploaded!

WunderBlogs® & News

Nearby

Snow Depth

Station Depth Elevation
No new snow has been reported.

Earthquake Activity

City Distance Mag. Time & Date
No recent earthquake activity has been reported nearby.
Minimum magnitude displayed is 2.5.

Coastal Water Temperatures

Place Temperature
No Stations Reporting

Nearby Weather Stations